sensor_id;sensor_type;location;lat;lon;timestamp;pressure;altitude;pressure_sealevel;temperature;humidity
3096;BME280;1558;42.700;23.360;2022-08-02T00:00:12;95065.50;;;18.58;80.42
3096;BME280;1558;42.700;23.360;2022-08-02T00:02:42;94970.13;;;17.86;81.56
3096;BME280;1558;42.700;23.360;2022-08-02T00:05:11;95134.28;;;18.96;82.91
3096;BME280;1558;42.700;23.360;2022-08-02T00:07:40;95125.28;;;18.95;82.88
3096;BME280;1558;42.700;23.360;2022-08-02T00:10:09;95129.56;;;18.85;83.16
3096;BME280;1558;42.700;23.360;2022-08-02T00:12:37;95131.06;;;18.62;84.32
3096;BME280;1558;42.700;23.360;2022-08-02T00:15:07;95110.31;;;18.33;85.32
3096;BME280;1558;42.700;23.360;2022-08-02T00:17:43;95136.44;;;18.34;86.28
3096;BME280;1558;42.700;23.360;2022-08-02T00:20:13;95137.59;;;18.25;86.30
3096;BME280;1558;42.700;23.360;2022-08-02T00:22:41;95134.44;;;18.31;87.57
3096;BME280;1558;42.700;23.360;2022-08-02T00:25:09;95112.22;;;18.28;88.39
3096;BME280;1558;42.700;23.360;2022-08-02T00:27:37;95129.03;;;18.34;87.54
3096;BME280;1558;42.700;23.360;2022-08-02T00:30:05;95140.31;;;18.25;86.80
3096;BME280;1558;42.700;23.360;2022-08-02T00:32:33;95128.94;;;18.16;87.72
3096;BME280;1558;42.700;23.360;2022-08-02T00:35:03;95127.72;;;18.03;87.15
3096;BME280;1558;42.700;23.360;2022-08-02T00:37:31;95086.66;;;17.75;86.90
3096;BME280;1558;42.700;23.360;2022-08-02T00:39:59;95136.22;;;17.91;86.71
3096;BME280;1558;42.700;23.360;2022-08-02T00:42:28;95142.75;;;17.73;87.41
3096;BME280;1558;42.700;23.360;2022-08-02T00:44:56;95135.31;;;17.66;87.63
3096;BME280;1558;42.700;23.360;2022-08-02T00:47:24;95133.44;;;17.77;87.63
3096;BME280;1558;42.700;23.360;2022-08-02T00:49:52;95128.72;;;17.74;87.36
3096;BME280;1558;42.700;23.360;2022-08-02T00:52:22;95135.22;;;17.55;87.79
3096;BME280;1558;42.700;23.360;2022-08-02T00:54:50;95143.38;;;17.52;88.71
3096;BME280;1558;42.700;23.360;2022-08-02T00:57:18;95138.22;;;17.40;89.06
3096;BME280;1558;42.700;23.360;2022-08-02T00:59:46;95133.88;;;17.32;89.46
3096;BME280;1558;42.700;23.360;2022-08-02T01:02:14;95143.06;;;17.17;90.34
3096;BME280;1558;42.700;23.360;2022-08-02T01:04:43;95141.13;;;17.14;90.84
3096;BME280;1558;42.700;23.360;2022-08-02T01:07:11;95143.34;;;17.05;91.05
3096;BME280;1558;42.700;23.360;2022-08-02T01:09:41;95135.97;;;17.05;92.18
3096;BME280;1558;42.700;23.360;2022-08-02T01:12:11;95138.34;;;17.07;91.79
3096;BME280;1558;42.700;23.360;2022-08-02T01:14:40;95133.53;;;16.93;92.42
3096;BME280;1558;42.700;23.360;2022-08-02T01:17:15;95141.69;;;16.93;92.71
3096;BME280;1558;42.700;23.360;2022-08-02T01:19:53;95135.00;;;16.83;92.98
3096;BME280;1558;42.700;23.360;2022-08-02T01:22:43;95130.34;;;16.84;93.96
3096;BME280;1558;42.700;23.360;2022-08-02T01:28:34;95078.16;;;16.42;94.19
3096;BME280;1558;42.700;23.360;2022-08-02T01:31:12;95137.97;;;16.71;94.26
3096;BME280;1558;42.700;23.360;2022-08-02T01:33:44;95137.19;;;16.67;94.76
3096;BME280;1558;42.700;23.360;2022-08-02T01:36:16;95134.59;;;16.81;94.80
3096;BME280;1558;42.700;23.360;2022-08-02T01:38:47;95128.06;;;16.89;94.85
3096;BME280;1558;42.700;23.360;2022-08-02T01:41:18;95028.63;;;16.29;94.85
3096;BME280;1558;42.700;23.360;2022-08-02T01:43:51;95116.38;;;16.92;93.95
3096;BME280;1558;42.700;23.360;2022-08-02T01:46:20;95081.44;;;16.58;93.34
3096;BME280;1558;42.700;23.360;2022-08-02T01:48:52;95049.38;;;16.44;94.30
3096;BME280;1558;42.700;23.360;2022-08-02T01:51:22;95134.81;;;17.06;94.47
3096;BME280;1558;42.700;23.360;2022-08-02T01:54:14;95138.16;;;17.33;93.83
3096;BME280;1558;42.700;23.360;2022-08-02T01:56:43;95131.38;;;17.13;93.33
3096;BME280;1558;42.700;23.360;2022-08-02T01:59:15;95135.13;;;16.98;94.72
3096;BME280;1558;42.700;23.360;2022-08-02T02:01:47;95143.56;;;16.85;95.72
3096;BME280;1558;42.700;23.360;2022-08-02T02:04:16;95141.91;;;16.74;96.38
3096;BME280;1558;42.700;23.360;2022-08-02T02:06:46;95138.53;;;16.51;97.60
3096;BME280;1558;42.700;23.360;2022-08-02T02:09:16;95130.91;;;16.63;98.90
3096;BME280;1558;42.700;23.360;2022-08-02T02:11:46;95139.09;;;16.67;98.94
3096;BME280;1558;42.700;23.360;2022-08-02T02:14:37;95136.94;;;16.83;98.86
3096;BME280;1558;42.700;23.360;2022-08-02T02:17:07;95131.13;;;16.88;98.11
3096;BME280;1558;42.700;23.360;2022-08-02T02:19:57;95139.31;;;16.88;97.41
3096;BME280;1558;42.700;23.360;2022-08-02T02:22:26;95139.16;;;16.70;97.14
3096;BME280;1558;42.700;23.360;2022-08-02T02:24:54;95138.69;;;16.61;98.36
3096;BME280;1558;42.700;23.360;2022-08-02T02:27:24;95132.97;;;16.73;99.06
3096;BME280;1558;42.700;23.360;2022-08-02T02:29:54;95137.44;;;16.96;98.89
3096;BME280;1558;42.700;23.360;2022-08-02T02:32:24;95134.44;;;17.08;97.28
3096;BME280;1558;42.700;23.360;2022-08-02T02:34:54;95132.50;;;17.08;96.08
3096;BME280;1558;42.700;23.360;2022-08-02T02:37:23;95125.41;;;16.97;95.08
3096;BME280;1558;42.700;23.360;2022-08-02T02:39:54;95138.75;;;17.09;94.67
3096;BME280;1558;42.700;23.360;2022-08-02T02:42:29;95140.22;;;16.99;95.17
3096;BME280;1558;42.700;23.360;2022-08-02T02:44:59;95125.81;;;17.02;95.19
3096;BME280;1558;42.700;23.360;2022-08-02T02:47:29;95134.50;;;17.11;94.30
3096;BME280;1558;42.700;23.360;2022-08-02T02:50:08;95137.97;;;17.12;94.69
3096;BME280;1558;42.700;23.360;2022-08-02T02:52:38;95142.78;;;17.29;94.34
3096;BME280;1558;42.700;23.360;2022-08-02T02:55:07;95152.59;;;17.37;93.28
3096;BME280;1558;42.700;23.360;2022-08-02T02:57:36;95150.47;;;17.60;92.84
3096;BME280;1558;42.700;23.360;2022-08-02T03:00:10;95148.00;;;17.44;91.99
3096;BME280;1558;42.700;23.360;2022-08-02T03:02:39;95149.41;;;17.28;92.63
3096;BME280;1558;42.700;23.360;2022-08-02T03:05:09;95099.16;;;16.81;93.29
3096;BME280;1558;42.700;23.360;2022-08-02T03:07:38;95141.81;;;17.04;94.16
3096;BME280;1558;42.700;23.360;2022-08-02T03:10:07;95148.06;;;17.04;94.15
3096;BME280;1558;42.700;23.360;2022-08-02T03:12:36;95140.09;;;16.88;94.79
3096;BME280;1558;42.700;23.360;2022-08-02T03:15:07;95142.53;;;16.97;95.62
3096;BME280;1558;42.700;23.360;2022-08-02T03:17:39;95140.00;;;17.22;95.62
3096;BME280;1558;42.700;23.360;2022-08-02T03:20:10;95137.84;;;17.45;94.25
3096;BME280;1558;42.700;23.360;2022-08-02T03:22:39;95135.91;;;17.45;93.83
3096;BME280;1558;42.700;23.360;2022-08-02T03:25:08;95133.94;;;17.42;93.23
3096;BME280;1558;42.700;23.360;2022-08-02T03:27:36;95138.97;;;17.37;93.21
3096;BME280;1558;42.700;23.360;2022-08-02T03:30:08;95141.88;;;17.11;93.19
3096;BME280;1558;42.700;23.360;2022-08-02T03:32:38;95144.44;;;16.93;94.43
3096;BME280;1558;42.700;23.360;2022-08-02T03:35:09;95154.38;;;16.75;95.49
3096;BME280;1558;42.700;23.360;2022-08-02T03:37:37;95131.59;;;16.53;96.55
3096;BME280;1558;42.700;23.360;2022-08-02T03:40:08;95144.06;;;16.54;97.41
3096;BME280;1558;42.700;23.360;2022-08-02T03:42:38;95144.47;;;16.56;98.22
3096;BME280;1558;42.700;23.360;2022-08-02T03:45:09;95148.31;;;16.55;98.53
3096;BME280;1558;42.700;23.360;2022-08-02T03:47:39;95149.56;;;16.61;98.36
3096;BME280;1558;42.700;23.360;2022-08-02T03:50:10;95150.25;;;16.51;98.90
3096;BME280;1558;42.700;23.360;2022-08-02T03:52:40;94976.72;;;15.41;99.26
3096;BME280;1558;42.700;23.360;2022-08-02T03:55:10;95150.94;;;16.48;99.84
3096;BME280;1558;42.700;23.360;2022-08-02T03:57:38;95158.69;;;16.46;100.00
3096;BME280;1558;42.700;23.360;2022-08-02T04:00:09;95144.28;;;16.42;100.00
3096;BME280;1558;42.700;23.360;2022-08-02T04:02:38;95168.63;;;16.61;100.00
3096;BME280;1558;42.700;23.360;2022-08-02T04:05:07;95170.97;;;16.63;100.00
3096;BME280;1558;42.700;23.360;2022-08-02T04:07:36;95159.94;;;16.52;100.00
3096;BME280;1558;42.700;23.360;2022-08-02T04:10:24;95183.09;;;16.69;100.00
3096;BME280;1558;42.700;23.360;2022-08-02T04:12:53;95182.09;;;16.84;100.00
3096;BME280;1558;42.700;23.360;2022-08-02T04:15:23;95155.44;;;16.67;99.28
3096;BME280;1558;42.700;23.360;2022-08-02T04:17:54;95187.34;;;17.00;98.96
3096;BME280;1558;42.700;23.360;2022-08-02T04:20:26;95132.13;;;16.66;98.11
3096;BME280;1558;42.700;23.360;2022-08-02T04:22:59;95190.53;;;17.12;97.63
3096;BME280;1558;42.700;23.360;2022-08-02T04:25:28;95133.50;;;16.89;96.96
3096;BME280;1558;42.700;23.360;2022-08-02T04:28:07;95181.47;;;17.45;94.84
3096;BME280;1558;42.700;23.360;2022-08-02T04:30:45;95109.72;;;17.34;92.16
3096;BME280;1558;42.700;23.360;2022-08-02T04:33:13;95130.25;;;17.72;90.62
3096;BME280;1558;42.700;23.360;2022-08-02T04:35:42;95171.88;;;18.19;88.70
3096;BME280;1558;42.700;23.360;2022-08-02T04:38:12;95169.41;;;17.97;88.29
3096;BME280;1558;42.700;23.360;2022-08-02T04:40:41;95183.41;;;17.92;88.84
3096;BME280;1558;42.700;23.360;2022-08-02T04:43:16;95185.09;;;18.14;88.84
3096;BME280;1558;42.700;23.360;2022-08-02T04:45:46;95179.84;;;18.49;87.36
3096;BME280;1558;42.700;23.360;2022-08-02T04:48:14;95187.72;;;18.72;86.30
3096;BME280;1558;42.700;23.360;2022-08-02T04:50:42;95177.25;;;19.09;84.76
3096;BME280;1558;42.700;23.360;2022-08-02T04:53:10;95126.75;;;20.23;80.67
3096;BME280;1558;42.700;23.360;2022-08-02T04:55:38;95184.97;;;21.86;74.83
3096;BME280;1558;42.700;23.360;2022-08-02T04:58:06;95185.88;;;22.13;72.14
3096;BME280;1558;42.700;23.360;2022-08-02T05:00:55;95182.78;;;22.08;68.96
3096;BME280;1558;42.700;23.360;2022-08-02T05:03:23;95182.38;;;21.65;70.43
3096;BME280;1558;42.700;23.360;2022-08-02T05:05:52;95170.53;;;21.72;69.33
3096;BME280;1558;42.700;23.360;2022-08-02T05:08:20;95192.25;;;22.03;69.18
3096;BME280;1558;42.700;23.360;2022-08-02T05:10:48;95188.25;;;22.11;68.59
3096;BME280;1558;42.700;23.360;2022-08-02T05:13:16;95177.31;;;22.08;68.86
3096;BME280;1558;42.700;23.360;2022-08-02T05:15:47;95199.69;;;22.44;67.40
3096;BME280;1558;42.700;23.360;2022-08-02T05:18:16;95198.69;;;22.64;65.88
3096;BME280;1558;42.700;23.360;2022-08-02T05:20:44;95197.59;;;22.88;64.60
3096;BME280;1558;42.700;23.360;2022-08-02T05:23:12;95199.59;;;23.95;62.22
3096;BME280;1558;42.700;23.360;2022-08-02T05:25:40;95199.97;;;24.82;60.61
3096;BME280;1558;42.700;23.360;2022-08-02T05:28:08;95201.78;;;25.09;57.25
3096;BME280;1558;42.700;23.360;2022-08-02T05:30:37;95148.63;;;24.65;56.71
3096;BME280;1558;42.700;23.360;2022-08-02T05:33:06;95184.69;;;25.33;56.20
3096;BME280;1558;42.700;23.360;2022-08-02T05:35:35;95208.31;;;25.70;56.07
3096;BME280;1558;42.700;23.360;2022-08-02T05:38:03;95205.03;;;26.24;53.56
3096;BME280;1558;42.700;23.360;2022-08-02T05:40:35;95207.78;;;25.23;54.03
3096;BME280;1558;42.700;23.360;2022-08-02T05:43:20;95206.75;;;25.17;54.89
3096;BME280;1558;42.700;23.360;2022-08-02T05:45:49;95209.56;;;25.14;54.78
3096;BME280;1558;42.700;23.360;2022-08-02T05:48:19;95208.72;;;25.17;54.57
3096;BME280;1558;42.700;23.360;2022-08-02T05:51:01;95213.41;;;25.00;55.74
3096;BME280;1558;42.700;23.360;2022-08-02T05:53:35;95206.06;;;25.65;55.20
3096;BME280;1558;42.700;23.360;2022-08-02T05:56:15;95209.09;;;26.35;53.49
3096;BME280;1558;42.700;23.360;2022-08-02T05:58:49;95210.84;;;26.58;51.68
3096;BME280;1558;42.700;23.360;2022-08-02T06:01:26;95224.44;;;27.10;51.16
3096;BME280;1558;42.700;23.360;2022-08-02T06:03:56;95226.81;;;27.24;50.48
3096;BME280;1558;42.700;23.360;2022-08-02T06:06:28;95219.53;;;27.42;50.45
3096;BME280;1558;42.700;23.360;2022-08-02T06:09:00;95182.91;;;27.22;48.80
3096;BME280;1558;42.700;23.360;2022-08-02T06:11:34;95221.59;;;27.26;48.80
3096;BME280;1558;42.700;23.360;2022-08-02T06:14:03;95230.09;;;27.73;48.48
3096;BME280;1558;42.700;23.360;2022-08-02T06:16:31;95221.09;;;27.69;47.99
3096;BME280;1558;42.700;23.360;2022-08-02T06:19:08;95229.44;;;27.69;48.12
3096;BME280;1558;42.700;23.360;2022-08-02T06:21:40;95174.75;;;27.44;47.78
3096;BME280;1558;42.700;23.360;2022-08-02T06:24:29;95238.50;;;27.82;47.57
3096;BME280;1558;42.700;23.360;2022-08-02T06:26:59;95233.59;;;27.98;47.89
3096;BME280;1558;42.700;23.360;2022-08-02T06:29:28;95232.28;;;28.28;46.31
3096;BME280;1558;42.700;23.360;2022-08-02T06:32:05;95229.28;;;28.69;45.81
3096;BME280;1558;42.700;23.360;2022-08-02T06:34:37;95232.41;;;28.59;45.55
3096;BME280;1558;42.700;23.360;2022-08-02T06:37:25;95235.63;;;29.13;44.98
3096;BME280;1558;42.700;23.360;2022-08-02T06:39:58;95239.84;;;29.39;43.00
3096;BME280;1558;42.700;23.360;2022-08-02T06:42:36;95248.53;;;29.20;43.56
3096;BME280;1558;42.700;23.360;2022-08-02T06:45:08;95242.44;;;28.91;43.60
3096;BME280;1558;42.700;23.360;2022-08-02T06:47:36;95241.56;;;29.03;43.13
3096;BME280;1558;42.700;23.360;2022-08-02T06:50:05;95140.75;;;28.71;42.61
3096;BME280;1558;42.700;23.360;2022-08-02T06:52:34;95233.47;;;29.61;42.35
3096;BME280;1558;42.700;23.360;2022-08-02T06:55:04;95234.06;;;29.86;40.69
3096;BME280;1558;42.700;23.360;2022-08-02T06:57:32;95210.59;;;29.87;39.99
3096;BME280;1558;42.700;23.360;2022-08-02T07:00:02;95227.09;;;29.51;40.96
3096;BME280;1558;42.700;23.360;2022-08-02T07:02:33;95215.97;;;29.08;40.38
3096;BME280;1558;42.700;23.360;2022-08-02T07:05:01;95233.41;;;29.21;40.45
3096;BME280;1558;42.700;23.360;2022-08-02T07:07:30;95183.25;;;28.47;40.94
3096;BME280;1558;42.700;23.360;2022-08-02T07:09:59;95221.75;;;28.92;40.99
3096;BME280;1558;42.700;23.360;2022-08-02T07:12:29;95232.97;;;29.53;40.58
3096;BME280;1558;42.700;23.360;2022-08-02T07:14:57;95222.00;;;29.80;40.16
3096;BME280;1558;42.700;23.360;2022-08-02T07:17:25;95216.00;;;30.49;39.37
3096;BME280;1558;42.700;23.360;2022-08-02T07:19:54;95232.38;;;31.56;37.72
3096;BME280;1558;42.700;23.360;2022-08-02T07:22:21;95237.22;;;31.28;37.04
3096;BME280;1558;42.700;23.360;2022-08-02T07:24:50;95185.34;;;30.31;37.83
3096;BME280;1558;42.700;23.360;2022-08-02T07:27:20;95225.44;;;29.63;38.23
3096;BME280;1558;42.700;23.360;2022-08-02T07:29:48;95206.63;;;30.06;38.94
3096;BME280;1558;42.700;23.360;2022-08-02T07:32:17;95216.91;;;30.37;37.60
3096;BME280;1558;42.700;23.360;2022-08-02T07:34:47;95222.50;;;30.37;37.33
3096;BME280;1558;42.700;23.360;2022-08-02T07:37:19;95225.56;;;30.39;37.18
3096;BME280;1558;42.700;23.360;2022-08-02T07:40:08;95223.53;;;30.30;37.97
3096;BME280;1558;42.700;23.360;2022-08-02T07:42:42;95163.97;;;30.09;36.93
3096;BME280;1558;42.700;23.360;2022-08-02T07:45:10;95228.13;;;30.91;36.75
3096;BME280;1558;42.700;23.360;2022-08-02T07:47:40;95201.16;;;30.88;36.49
3096;BME280;1558;42.700;23.360;2022-08-02T07:50:09;95222.78;;;31.57;35.99
3096;BME280;1558;42.700;23.360;2022-08-02T07:52:38;95217.88;;;30.70;36.87
3096;BME280;1558;42.700;23.360;2022-08-02T07:55:07;95180.75;;;30.91;36.45
3096;BME280;1558;42.700;23.360;2022-08-02T07:57:36;95224.53;;;31.27;36.26
3096;BME280;1558;42.700;23.360;2022-08-02T08:00:12;95211.34;;;31.27;36.21
3096;BME280;1558;42.700;23.360;2022-08-02T08:02:42;95225.75;;;31.44;35.32
3096;BME280;1558;42.700;23.360;2022-08-02T08:05:10;95211.28;;;31.64;34.94
3096;BME280;1558;42.700;23.360;2022-08-02T08:07:39;95097.81;;;30.50;35.56
3096;BME280;1558;42.700;23.360;2022-08-02T08:10:09;95229.44;;;31.59;35.10
3096;BME280;1558;42.700;23.360;2022-08-02T08:12:37;95183.63;;;31.24;35.26
3096;BME280;1558;42.700;23.360;2022-08-02T08:15:06;95219.09;;;31.32;35.55
3096;BME280;1558;42.700;23.360;2022-08-02T08:17:35;95223.09;;;31.40;35.03
3096;BME280;1558;42.700;23.360;2022-08-02T08:20:04;95231.91;;;31.66;35.05
3096;BME280;1558;42.700;23.360;2022-08-02T08:22:32;95214.72;;;31.40;34.61
3096;BME280;1558;42.700;23.360;2022-08-02T08:25:00;95226.66;;;32.01;35.19
3096;BME280;1558;42.700;23.360;2022-08-02T08:27:29;95181.28;;;32.62;33.98
3096;BME280;1558;42.700;23.360;2022-08-02T08:29:59;95206.91;;;32.85;33.80
3096;BME280;1558;42.700;23.360;2022-08-02T08:32:27;95214.38;;;32.31;34.29
3096;BME280;1558;42.700;23.360;2022-08-02T08:34:58;95210.88;;;32.54;34.42
3096;BME280;1558;42.700;23.360;2022-08-02T08:37:32;95207.34;;;33.07;34.02
3096;BME280;1558;42.700;23.360;2022-08-02T08:40:01;95209.00;;;32.75;33.78
3096;BME280;1558;42.700;23.360;2022-08-02T08:42:30;95168.28;;;32.59;33.59
3096;BME280;1558;42.700;23.360;2022-08-02T08:44:59;95210.03;;;32.06;34.59
3096;BME280;1558;42.700;23.360;2022-08-02T08:47:32;95208.56;;;31.87;34.92
3096;BME280;1558;42.700;23.360;2022-08-02T08:50:04;95196.44;;;31.39;35.91
3096;BME280;1558;42.700;23.360;2022-08-02T08:52:35;95094.19;;;31.36;34.87
3096;BME280;1558;42.700;23.360;2022-08-02T08:55:08;95209.06;;;31.77;35.44
3096;BME280;1558;42.700;23.360;2022-08-02T08:57:39;95202.69;;;31.76;35.15
3096;BME280;1558;42.700;23.360;2022-08-02T09:00:10;95205.78;;;32.20;34.70
3096;BME280;1558;42.700;23.360;2022-08-02T09:02:40;95203.91;;;32.17;34.35
3096;BME280;1558;42.700;23.360;2022-08-02T09:05:11;95201.03;;;32.35;34.67
3096;BME280;1558;42.700;23.360;2022-08-02T09:07:41;95200.16;;;32.91;33.62
3096;BME280;1558;42.700;23.360;2022-08-02T09:10:31;95202.34;;;33.11;33.48
3096;BME280;1558;42.700;23.360;2022-08-02T09:13:14;95197.34;;;33.44;33.48
3096;BME280;1558;42.700;23.360;2022-08-02T09:16:05;95202.03;;;33.96;32.70
3096;BME280;1558;42.700;23.360;2022-08-02T09:18:41;95197.09;;;32.18;33.52
3096;BME280;1558;42.700;23.360;2022-08-02T09:21:13;95182.00;;;31.59;34.82
3096;BME280;1558;42.700;23.360;2022-08-02T09:23:43;95193.69;;;32.14;33.70
3096;BME280;1558;42.700;23.360;2022-08-02T09:26:13;95186.00;;;32.56;33.78
3096;BME280;1558;42.700;23.360;2022-08-02T09:28:43;95192.59;;;32.68;33.21
3096;BME280;1558;42.700;23.360;2022-08-02T09:31:13;95194.44;;;32.86;33.17
3096;BME280;1558;42.700;23.360;2022-08-02T09:33:43;95196.34;;;33.91;32.59
3096;BME280;1558;42.700;23.360;2022-08-02T09:36:13;95170.91;;;34.09;31.41
3096;BME280;1558;42.700;23.360;2022-08-02T09:38:52;95193.53;;;34.05;31.27
3096;BME280;1558;42.700;23.360;2022-08-02T09:41:21;95187.81;;;32.98;32.63
3096;BME280;1558;42.700;23.360;2022-08-02T09:43:49;95189.66;;;33.01;31.75
3096;BME280;1558;42.700;23.360;2022-08-02T09:46:33;95192.22;;;33.13;32.30
3096;BME280;1558;42.700;23.360;2022-08-02T09:49:06;95187.69;;;32.78;32.73
3096;BME280;1558;42.700;23.360;2022-08-02T09:51:38;95187.28;;;32.46;33.21
3096;BME280;1558;42.700;23.360;2022-08-02T09:54:08;95176.59;;;33.65;32.21
3096;BME280;1558;42.700;23.360;2022-08-02T09:56:46;95080.84;;;32.06;32.18
3096;BME280;1558;42.700;23.360;2022-08-02T09:59:16;95177.72;;;32.38;33.19
3096;BME280;1558;42.700;23.360;2022-08-02T10:01:47;95162.00;;;33.03;32.79
3096;BME280;1558;42.700;23.360;2022-08-02T10:04:30;95172.66;;;33.13;32.74
3096;BME280;1558;42.700;23.360;2022-08-02T10:07:20;95168.59;;;32.76;33.08
3096;BME280;1558;42.700;23.360;2022-08-02T10:09:49;95161.38;;;32.46;32.78
3096;BME280;1558;42.700;23.360;2022-08-02T10:12:18;95170.13;;;31.50;34.67
3096;BME280;1558;42.700;23.360;2022-08-02T10:14:48;95171.97;;;32.65;33.63
3096;BME280;1558;42.700;23.360;2022-08-02T10:17:19;95172.69;;;32.90;32.72
3096;BME280;1558;42.700;23.360;2022-08-02T10:19:47;95150.75;;;31.79;33.79
3096;BME280;1558;42.700;23.360;2022-08-02T10:22:32;95158.13;;;31.91;34.50
3096;BME280;1558;42.700;23.360;2022-08-02T10:25:03;95158.91;;;31.59;34.86
3096;BME280;1558;42.700;23.360;2022-08-02T10:27:31;95090.63;;;30.94;35.02
3096;BME280;1558;42.700;23.360;2022-08-02T10:30:22;95163.81;;;32.05;34.96
3096;BME280;1558;42.700;23.360;2022-08-02T10:32:52;95161.81;;;31.13;34.78
3096;BME280;1558;42.700;23.360;2022-08-02T10:35:22;95164.50;;;30.35;36.27
3096;BME280;1558;42.700;23.360;2022-08-02T10:37:56;95162.31;;;31.12;36.19
3096;BME280;1558;42.700;23.360;2022-08-02T10:40:42;95137.91;;;32.52;33.72
3096;BME280;1558;42.700;23.360;2022-08-02T10:43:10;95165.06;;;31.21;34.45
3096;BME280;1558;42.700;23.360;2022-08-02T10:45:39;95109.34;;;29.85;36.69
3096;BME280;1558;42.700;23.360;2022-08-02T10:48:08;95074.88;;;30.00;36.94
3096;BME280;1558;42.700;23.360;2022-08-02T10:50:53;95155.38;;;29.86;36.41
3096;BME280;1558;42.700;23.360;2022-08-02T10:53:25;95152.81;;;29.61;37.55
3096;BME280;1558;42.700;23.360;2022-08-02T10:55:55;95147.72;;;29.59;38.37
3096;BME280;1558;42.700;23.360;2022-08-02T10:58:25;95151.16;;;29.11;38.55
3096;BME280;1558;42.700;23.360;2022-08-02T11:00:55;95161.09;;;30.40;37.61
3096;BME280;1558;42.700;23.360;2022-08-02T11:03:35;95149.59;;;30.83;36.23
3096;BME280;1558;42.700;23.360;2022-08-02T11:06:07;95154.75;;;31.87;34.74
3096;BME280;1558;42.700;23.360;2022-08-02T11:09:26;95150.97;;;32.70;33.48
3096;BME280;1558;42.700;23.360;2022-08-02T11:12:00;95052.91;;;32.06;33.15
3096;BME280;1558;42.700;23.360;2022-08-02T11:14:29;95147.31;;;32.78;33.25
3096;BME280;1558;42.700;23.360;2022-08-02T11:17:11;95115.16;;;31.23;34.50
3096;BME280;1558;42.700;23.360;2022-08-02T11:20:13;95145.72;;;30.08;36.46
3096;BME280;1558;42.700;23.360;2022-08-02T11:22:44;95143.72;;;29.29;38.39
3096;BME280;1558;42.700;23.360;2022-08-02T11:25:39;95149.97;;;29.82;38.24
3096;BME280;1558;42.700;23.360;2022-08-02T11:28:27;95103.53;;;30.37;37.00
3096;BME280;1558;42.700;23.360;2022-08-02T11:30:56;95137.25;;;32.34;34.70
3096;BME280;1558;42.700;23.360;2022-08-02T11:33:32;95140.72;;;33.34;32.13
3096;BME280;1558;42.700;23.360;2022-08-02T11:36:01;95062.44;;;32.38;32.23
3096;BME280;1558;42.700;23.360;2022-08-02T11:38:30;95152.34;;;32.27;33.33
3096;BME280;1558;42.700;23.360;2022-08-02T11:40:59;95071.47;;;29.78;36.23
3096;BME280;1558;42.700;23.360;2022-08-02T11:43:35;95144.56;;;31.75;35.38
3096;BME280;1558;42.700;23.360;2022-08-02T11:46:11;95138.19;;;33.07;34.17
3096;BME280;1558;42.700;23.360;2022-08-02T11:48:40;95150.28;;;33.28;32.73
3096;BME280;1558;42.700;23.360;2022-08-02T11:51:11;95121.97;;;34.04;32.50
3096;BME280;1558;42.700;23.360;2022-08-02T11:53:41;95105.44;;;34.27;32.00
3096;BME280;1558;42.700;23.360;2022-08-02T11:56:12;95145.66;;;34.64;31.03
3096;BME280;1558;42.700;23.360;2022-08-02T11:59:02;95145.66;;;34.64;30.26
3096;BME280;1558;42.700;23.360;2022-08-02T12:01:31;95146.72;;;35.12;30.12
3096;BME280;1558;42.700;23.360;2022-08-02T12:04:15;95146.91;;;35.03;29.27
3096;BME280;1558;42.700;23.360;2022-08-02T12:06:43;95132.50;;;34.70;29.92
3096;BME280;1558;42.700;23.360;2022-08-02T12:09:21;95132.75;;;34.12;30.54
3096;BME280;1558;42.700;23.360;2022-08-02T12:11:50;95141.16;;;33.48;31.86
3096;BME280;1558;42.700;23.360;2022-08-02T12:14:18;95114.19;;;33.30;32.13
3096;BME280;1558;42.700;23.360;2022-08-02T12:16:47;95140.72;;;33.20;32.57
3096;BME280;1558;42.700;23.360;2022-08-02T12:19:33;95136.44;;;34.03;31.92
3096;BME280;1558;42.700;23.360;2022-08-02T12:22:16;95138.06;;;34.50;31.15
3096;BME280;1558;42.700;23.360;2022-08-02T12:24:46;95058.72;;;32.70;31.94
3096;BME280;1558;42.700;23.360;2022-08-02T12:27:33;95133.81;;;31.59;34.19
3096;BME280;1558;42.700;23.360;2022-08-02T12:30:06;95133.09;;;32.29;33.45
3096;BME280;1558;42.700;23.360;2022-08-02T12:32:34;95100.31;;;32.15;33.45
3096;BME280;1558;42.700;23.360;2022-08-02T12:35:08;95129.88;;;32.84;33.16
3096;BME280;1558;42.700;23.360;2022-08-02T12:37:38;95127.91;;;33.28;32.32
3096;BME280;1558;42.700;23.360;2022-08-02T12:40:21;95131.31;;;32.94;32.15
3096;BME280;1558;42.700;23.360;2022-08-02T12:42:55;95132.00;;;32.89;33.04
3096;BME280;1558;42.700;23.360;2022-08-02T12:45:25;95128.25;;;32.92;32.92
3096;BME280;1558;42.700;23.360;2022-08-02T12:48:06;95124.38;;;32.74;32.36
3096;BME280;1558;42.700;23.360;2022-08-02T12:50:35;95115.25;;;32.50;32.17
3096;BME280;1558;42.700;23.360;2022-08-02T12:53:06;95099.34;;;31.71;34.04
3096;BME280;1558;42.700;23.360;2022-08-02T12:55:35;95112.81;;;31.96;34.44
3096;BME280;1558;42.700;23.360;2022-08-02T12:58:28;95112.81;;;32.82;33.58
3096;BME280;1558;42.700;23.360;2022-08-02T13:00:58;95110.38;;;32.60;33.36
3096;BME280;1558;42.700;23.360;2022-08-02T13:03:27;95113.94;;;32.60;33.77
3096;BME280;1558;42.700;23.360;2022-08-02T13:06:16;95092.75;;;32.68;33.20
3096;BME280;1558;42.700;23.360;2022-08-02T13:09:12;95101.91;;;32.07;34.60
3096;BME280;1558;42.700;23.360;2022-08-02T13:11:43;95115.09;;;31.74;35.23
3096;BME280;1558;42.700;23.360;2022-08-02T13:14:13;95103.63;;;31.48;35.14
3096;BME280;1558;42.700;23.360;2022-08-02T13:16:42;95114.50;;;31.37;35.38
3096;BME280;1558;42.700;23.360;2022-08-02T13:19:11;95093.41;;;30.85;36.05
3096;BME280;1558;42.700;23.360;2022-08-02T13:21:42;95123.13;;;30.88;36.14
3096;BME280;1558;42.700;23.360;2022-08-02T13:24:29;95123.31;;;30.30;35.92
3096;BME280;1558;42.700;23.360;2022-08-02T13:27:17;95030.66;;;29.84;36.48
3096;BME280;1558;42.700;23.360;2022-08-02T13:29:48;95112.03;;;30.52;36.61
3096;BME280;1558;42.700;23.360;2022-08-02T13:32:17;95109.84;;;30.65;36.21
3096;BME280;1558;42.700;23.360;2022-08-02T13:34:45;95072.72;;;30.23;35.93
3096;BME280;1558;42.700;23.360;2022-08-02T13:37:13;95113.28;;;30.69;36.41
3096;BME280;1558;42.700;23.360;2022-08-02T13:39:41;95117.56;;;30.97;35.66